createdAt,value
2023-05-20T00:01:55.719Z,16.51
2023-05-20T00:04:23.041Z,16.47
2023-05-20T00:06:50.432Z,16.42
2023-05-20T00:09:17.680Z,16.43
2023-05-20T00:11:46.383Z,16.43
2023-05-20T00:14:14.758Z,16.39
2023-05-20T00:16:42.028Z,16.36
2023-05-20T00:19:09.516Z,16.33
2023-05-20T00:21:36.826Z,16.32
2023-05-20T00:24:04.213Z,16.34
2023-05-20T00:26:31.512Z,16.36
2023-05-20T00:28:59.406Z,16.36
2023-05-20T00:31:26.737Z,16.34
2023-05-20T00:33:54.151Z,16.36
2023-05-20T00:36:21.479Z,16.35
2023-05-20T00:38:48.837Z,16.39
2023-05-20T00:41:16.097Z,16.44
2023-05-20T00:43:43.350Z,16.45
2023-05-20T00:46:10.893Z,16.46
2023-05-20T00:48:41.840Z,16.45
2023-05-20T00:51:10.441Z,16.43
2023-05-20T00:53:37.697Z,16.43
2023-05-20T00:56:05.615Z,16.42
2023-05-20T00:58:33.126Z,16.42
2023-05-20T01:01:00.422Z,16.40
2023-05-20T01:03:28.510Z,16.36
2023-05-20T01:05:56.011Z,16.31
2023-05-20T01:08:23.882Z,16.30
2023-05-20T01:11:22.778Z,16.28
2023-05-20T01:13:54.948Z,16.24
2023-05-20T01:16:23.773Z,16.19
2023-05-20T01:18:51.754Z,16.10
2023-05-20T01:21:18.970Z,16.02
2023-05-20T01:23:46.218Z,16.00
2023-05-20T01:26:17.518Z,15.99
2023-05-20T01:28:46.267Z,15.97
2023-05-20T01:31:24.189Z,15.95
2023-05-20T01:33:52.676Z,15.92
2023-05-20T01:36:20.105Z,15.88
2023-05-20T01:38:47.363Z,15.88
2023-05-20T01:41:14.629Z,15.88
2023-05-20T01:43:41.981Z,15.85
2023-05-20T01:46:09.264Z,15.83
2023-05-20T01:48:36.897Z,15.79
2023-05-20T01:51:04.150Z,15.80
2023-05-20T01:53:31.415Z,15.81
2023-05-20T01:55:59.382Z,15.81
2023-05-20T01:58:26.933Z,15.79
2023-05-20T02:00:54.211Z,15.74
2023-05-20T02:03:21.477Z,15.67
2023-05-20T02:05:48.920Z,15.65
2023-05-20T02:08:16.268Z,15.58
2023-05-20T02:10:44.646Z,15.59
2023-05-20T02:13:12.927Z,15.55
2023-05-20T02:15:44.072Z,15.49
2023-05-20T02:18:12.927Z,15.49
2023-05-20T02:20:41.379Z,15.52
2023-05-20T02:23:09.120Z,15.50
2023-05-20T02:25:37.299Z,15.47
2023-05-20T02:28:06.338Z,15.41
2023-05-20T02:30:34.577Z,15.34
2023-05-20T02:33:02.690Z,15.31
2023-05-20T02:35:30.005Z,15.31
2023-05-20T02:37:57.465Z,15.31
2023-05-20T02:40:24.720Z,15.30
2023-05-20T02:42:52.074Z,15.27
2023-05-20T02:45:19.332Z,15.27
2023-05-20T02:47:46.641Z,15.31
2023-05-20T02:50:13.953Z,15.32
2023-05-20T02:52:42.917Z,15.31
2023-05-20T02:55:10.913Z,15.29
2023-05-20T02:57:38.645Z,15.27
2023-05-20T03:00:11.296Z,15.31
2023-05-20T03:02:38.637Z,15.34
2023-05-20T03:05:08.245Z,15.36
2023-05-20T03:07:36.989Z,15.38
2023-05-20T03:10:08.163Z,15.37
2023-05-20T03:12:35.413Z,15.39
2023-05-20T03:15:02.688Z,15.46
2023-05-20T03:17:29.944Z,15.50
2023-05-20T03:19:57.595Z,15.49
2023-05-20T03:22:25.252Z,15.56
2023-05-20T03:24:53.331Z,15.60
2023-05-20T03:27:21.658Z,15.68
2023-05-20T03:29:49.271Z,15.74
2023-05-20T03:32:17.438Z,15.78
2023-05-20T03:34:45.218Z,15.82
2023-05-20T03:37:12.477Z,15.86
2023-05-20T03:39:39.828Z,15.87
2023-05-20T03:42:08.210Z,15.95
2023-05-20T03:46:43.176Z,16.09
2023-05-20T03:49:10.722Z,16.13
2023-05-20T03:51:39.202Z,16.14
2023-05-20T03:54:09.954Z,16.12
2023-05-20T03:56:37.508Z,16.15
2023-05-20T03:59:05.068Z,16.23
2023-05-20T04:01:34.311Z,16.30
2023-05-20T04:04:01.771Z,16.36
2023-05-20T04:06:29.390Z,16.40
2023-05-20T04:08:57.565Z,16.44
2023-05-20T04:11:24.922Z,16.48
2023-05-20T04:13:52.178Z,16.56
2023-05-20T04:16:20.364Z,16.65
2023-05-20T04:18:48.759Z,16.71
2023-05-20T04:21:16.207Z,16.72
2023-05-20T04:23:43.755Z,16.73
2023-05-20T04:26:11.003Z,16.77
2023-05-20T04:28:39.690Z,16.79
2023-05-20T04:31:07.152Z,16.83
2023-05-20T04:33:39.802Z,16.85
2023-05-20T04:36:08.854Z,16.87
2023-05-20T04:38:36.489Z,16.91
2023-05-20T04:41:04.469Z,16.95
2023-05-20T04:43:32.126Z,16.98
2023-05-20T04:46:06.474Z,17.06
2023-05-20T04:48:34.207Z,17.13
2023-05-20T04:51:01.773Z,17.19
2023-05-20T04:53:30.969Z,17.26
2023-05-20T04:55:58.236Z,17.29
2023-05-20T04:58:25.501Z,17.33
2023-05-20T05:00:53.342Z,17.35
2023-05-20T05:03:20.599Z,17.40
2023-05-20T05:05:48.587Z,17.46
2023-05-20T05:08:17.061Z,17.51
2023-05-20T05:10:48.921Z,17.55
2023-05-20T05:13:16.477Z,17.60
2023-05-20T05:15:43.784Z,17.63
2023-05-20T05:18:12.302Z,17.63
2023-05-20T05:20:39.979Z,17.69
2023-05-20T05:23:07.442Z,17.75
2023-05-20T05:25:35.030Z,17.82
2023-05-20T05:28:02.562Z,17.89
2023-05-20T05:30:30.740Z,17.95
2023-05-20T05:32:58.209Z,17.94
2023-05-20T05:35:26.827Z,18.01
2023-05-20T05:37:54.570Z,18.06
2023-05-20T05:40:21.901Z,18.15
2023-05-20T05:42:49.152Z,18.22
2023-05-20T05:45:16.441Z,18.23
2023-05-20T05:47:43.779Z,18.26
2023-05-20T05:50:11.743Z,18.31
2023-05-20T05:52:39.090Z,18.36
2023-05-20T05:55:09.565Z,18.38
2023-05-20T05:57:36.990Z,18.38
2023-05-20T06:00:05.278Z,18.43
2023-05-20T06:02:45.700Z,18.49
2023-05-20T06:05:13.805Z,18.52
2023-05-20T06:07:41.352Z,18.56
2023-05-20T06:10:09.158Z,18.63
2023-05-20T06:12:36.780Z,18.65
2023-05-20T06:15:04.644Z,18.67
2023-05-20T06:17:31.843Z,18.71
2023-05-20T06:20:00.201Z,18.73
2023-05-20T06:22:27.543Z,18.72
2023-05-20T06:24:56.877Z,18.79
2023-05-20T06:27:25.317Z,18.84
2023-05-20T06:29:52.574Z,18.84
2023-05-20T06:32:19.833Z,18.83
2023-05-20T06:34:47.180Z,18.84
2023-05-20T06:37:14.849Z,18.85
2023-05-20T06:39:42.105Z,18.90
2023-05-20T06:42:09.465Z,18.93
2023-05-20T06:44:37.326Z,18.95
2023-05-20T06:47:33.579Z,18.95
2023-05-20T06:50:02.141Z,18.95
2023-05-20T06:52:30.422Z,18.98
2023-05-20T06:54:57.652Z,18.99
2023-05-20T06:57:25.139Z,19.02
2023-05-20T06:59:52.386Z,19.04
2023-05-20T07:02:22.152Z,19.07
2023-05-20T07:04:49.706Z,19.09
2023-05-20T07:07:17.679Z,19.13
2023-05-20T07:09:45.805Z,19.16
2023-05-20T07:12:13.098Z,19.20
2023-05-20T07:14:40.309Z,19.28
2023-05-20T07:17:07.566Z,19.39
2023-05-20T07:19:35.018Z,19.52
2023-05-20T07:22:02.683Z,19.63
2023-05-20T07:24:47.859Z,19.74
2023-05-20T07:27:15.108Z,19.80
2023-05-20T07:29:42.972Z,19.83
2023-05-20T07:32:11.082Z,19.87
2023-05-20T07:34:38.919Z,19.93
2023-05-20T07:37:06.685Z,20.01
2023-05-20T07:39:33.942Z,20.08
2023-05-20T07:42:01.213Z,20.15
2023-05-20T07:44:28.754Z,20.20
2023-05-20T07:46:56.422Z,20.26
2023-05-20T07:49:23.664Z,20.31
2023-05-20T07:51:51.126Z,20.38
2023-05-20T07:54:18.394Z,20.46
2023-05-20T07:56:48.089Z,20.54
2023-05-20T07:59:17.915Z,20.62
2023-05-20T08:01:47.960Z,20.66
2023-05-20T08:04:16.558Z,20.67
2023-05-20T08:06:44.892Z,20.74
2023-05-20T08:09:16.233Z,20.87
2023-05-20T08:11:47.681Z,21.02
2023-05-20T08:14:15.448Z,21.17
2023-05-20T08:16:43.954Z,21.26
2023-05-20T08:19:11.511Z,21.26
2023-05-20T08:21:39.564Z,21.23
2023-05-20T08:24:07.543Z,21.26
2023-05-20T08:26:35.511Z,21.30
2023-05-20T08:29:02.860Z,21.36
2023-05-20T08:31:30.182Z,21.45
2023-05-20T08:33:58.186Z,21.48
2023-05-20T08:36:25.697Z,21.53
2023-05-20T08:38:53.111Z,21.55
2023-05-20T08:41:22.834Z,21.55
2023-05-20T08:43:50.890Z,21.56
2023-05-20T08:46:19.593Z,21.58
2023-05-20T08:48:47.139Z,21.64
2023-05-20T08:51:14.388Z,21.76
2023-05-20T08:53:41.642Z,21.87
2023-05-20T08:56:08.793Z,21.91
2023-05-20T08:58:36.352Z,21.96
2023-05-20T09:01:03.564Z,22.00
2023-05-20T09:03:30.890Z,22.04
2023-05-20T09:06:09.365Z,22.14
2023-05-20T09:08:36.836Z,22.19
2023-05-20T09:11:04.305Z,22.23
2023-05-20T09:13:32.978Z,22.26
2023-05-20T09:16:01.757Z,22.28
2023-05-20T09:18:29.744Z,22.29
2023-05-20T09:20:57.480Z,22.32
2023-05-20T09:23:28.244Z,22.36
2023-05-20T09:25:55.402Z,22.38
2023-05-20T09:28:25.436Z,22.32
2023-05-20T09:30:58.475Z,22.33
2023-05-20T09:33:30.876Z,22.37
2023-05-20T09:36:06.210Z,22.36
2023-05-20T09:38:38.320Z,22.34
2023-05-20T09:41:13.418Z,22.34
2023-05-20T09:43:40.780Z,22.40
2023-05-20T09:46:08.776Z,22.45
2023-05-20T09:48:37.695Z,22.60
2023-05-20T09:51:06.477Z,22.67
2023-05-20T09:53:33.720Z,22.67
2023-05-20T09:56:01.453Z,22.66
2023-05-20T09:58:29.559Z,22.63
2023-05-20T10:00:56.901Z,22.68
2023-05-20T10:03:25.294Z,22.76
2023-05-20T10:06:02.135Z,22.92
2023-05-20T10:08:47.719Z,23.11
2023-05-20T10:11:15.178Z,23.23
2023-05-20T10:14:10.080Z,23.23
2023-05-20T10:17:20.765Z,23.29
2023-05-20T10:19:48.011Z,23.36
2023-05-20T10:22:15.362Z,23.41
2023-05-20T10:24:44.267Z,23.49
2023-05-20T10:27:15.210Z,23.50
2023-05-20T10:32:26.774Z,23.46
2023-05-20T10:34:55.901Z,23.59
2023-05-20T10:37:31.409Z,23.81
2023-05-20T10:40:09.575Z,24.17
2023-05-20T10:42:38.143Z,24.47
2023-05-20T10:45:06.312Z,24.63
2023-05-20T10:47:33.589Z,24.87
2023-05-20T10:50:02.459Z,25.06
2023-05-20T10:52:33.624Z,25.07
2023-05-20T10:55:01.372Z,24.97
2023-05-20T10:57:29.288Z,24.93
2023-05-20T10:59:56.695Z,24.91
2023-05-20T11:02:32.805Z,24.89
2023-05-20T11:05:00.131Z,25.01
2023-05-20T11:07:29.059Z,25.20
2023-05-20T11:09:57.058Z,25.39
2023-05-20T11:12:24.814Z,25.58
2023-05-20T11:14:52.209Z,25.67
2023-05-20T11:17:19.953Z,25.63
2023-05-20T11:19:51.215Z,25.64
2023-05-20T11:22:18.581Z,25.68
2023-05-20T11:24:46.848Z,25.64
2023-05-20T11:27:14.217Z,25.74
2023-05-20T11:29:41.770Z,25.94
2023-05-20T11:32:09.297Z,25.98
2023-05-20T11:34:37.617Z,25.95
2023-05-20T11:37:09.629Z,25.93
2023-05-20T11:39:37.788Z,25.93
2023-05-20T11:42:06.539Z,26.01
2023-05-20T11:44:34.400Z,26.34
2023-05-20T11:47:02.318Z,26.81
2023-05-20T11:49:31.072Z,27.06
2023-05-20T11:51:58.926Z,27.00
2023-05-20T11:54:26.588Z,26.87
2023-05-20T11:56:54.910Z,26.76
2023-05-20T11:59:22.332Z,26.69
2023-05-20T12:01:49.604Z,26.59
2023-05-20T12:04:18.244Z,26.49
2023-05-20T12:06:46.142Z,26.49
2023-05-20T12:09:14.504Z,26.38
2023-05-20T12:11:42.287Z,26.23
2023-05-20T12:14:09.939Z,26.16
2023-05-20T12:16:37.944Z,26.30
2023-05-20T12:19:05.529Z,26.58
2023-05-20T12:21:32.824Z,26.75
2023-05-20T12:24:00.286Z,26.82
2023-05-20T12:26:28.476Z,26.75
2023-05-20T12:28:56.546Z,26.74
2023-05-20T12:31:23.929Z,26.88
2023-05-20T12:33:51.242Z,27.05
2023-05-20T12:36:20.025Z,27.24
2023-05-20T12:38:47.600Z,27.35
2023-05-20T12:41:14.945Z,27.31
2023-05-20T12:43:42.209Z,27.26
2023-05-20T12:46:09.552Z,27.06
2023-05-20T12:48:37.481Z,26.93
2023-05-20T12:51:05.543Z,26.91
2023-05-20T12:53:32.851Z,26.84
2023-05-20T12:56:00.180Z,26.60
2023-05-20T12:58:27.450Z,26.56
2023-05-20T13:00:54.737Z,26.60
2023-05-20T13:03:22.062Z,26.62
2023-05-20T13:05:49.423Z,26.75
2023-05-20T13:08:16.902Z,26.95
2023-05-20T13:10:44.030Z,26.81
2023-05-20T13:13:11.590Z,26.52
2023-05-20T13:15:39.253Z,26.35
2023-05-20T13:18:07.404Z,26.40
2023-05-20T13:20:35.054Z,26.48
2023-05-20T13:23:02.651Z,26.47
2023-05-20T13:25:32.057Z,26.44
2023-05-20T13:27:59.307Z,26.47
2023-05-20T13:30:26.769Z,26.50
2023-05-20T13:32:54.105Z,26.51
2023-05-20T13:35:21.690Z,26.45
2023-05-20T13:37:49.044Z,26.34
2023-05-20T13:40:16.288Z,26.24
2023-05-20T13:42:44.574Z,26.10
2023-05-20T13:45:12.343Z,25.92
2023-05-20T13:47:39.591Z,25.73
2023-05-20T13:50:07.879Z,25.52
2023-05-20T13:52:35.221Z,25.30
2023-05-20T13:55:02.578Z,25.16
2023-05-20T13:57:29.822Z,25.05
2023-05-20T13:59:57.080Z,24.96
2023-05-20T14:02:24.391Z,24.80
2023-05-20T14:04:51.792Z,24.66
2023-05-20T14:07:19.054Z,24.55
2023-05-20T14:09:46.302Z,24.40
2023-05-20T14:12:13.553Z,24.25
2023-05-20T14:14:40.957Z,24.20
2023-05-20T14:17:08.205Z,24.24
2023-05-20T14:19:35.560Z,24.29
2023-05-20T14:22:03.692Z,24.37
2023-05-20T14:24:30.893Z,24.42
2023-05-20T14:26:58.239Z,24.44
2023-05-20T14:29:25.659Z,24.46
2023-05-20T14:31:52.906Z,24.39
2023-05-20T14:34:20.261Z,24.36
2023-05-20T14:36:47.946Z,24.34
2023-05-20T14:39:15.437Z,24.34
2023-05-20T14:41:42.642Z,24.28
2023-05-20T14:44:09.892Z,24.19
2023-05-20T14:46:37.371Z,24.16
2023-05-20T14:49:04.806Z,24.14
2023-05-20T14:51:32.264Z,24.10
2023-05-20T14:53:59.827Z,24.07
2023-05-20T14:56:27.086Z,24.09
2023-05-20T14:58:54.331Z,24.08
2023-05-20T15:01:21.659Z,24.04
2023-05-20T15:03:48.954Z,24.02
2023-05-20T15:06:16.505Z,23.97
2023-05-20T15:08:43.778Z,23.97
2023-05-20T15:11:11.466Z,23.91
2023-05-20T15:13:40.378Z,23.85
2023-05-20T15:16:08.133Z,23.82
2023-05-20T15:18:35.329Z,23.86
2023-05-20T15:21:02.692Z,23.94
2023-05-20T15:23:30.042Z,23.94
2023-05-20T15:25:58.839Z,23.94
2023-05-20T15:28:26.040Z,23.89
2023-05-20T15:30:55.263Z,23.81
2023-05-20T15:33:22.932Z,23.70
2023-05-20T15:35:50.302Z,23.59
2023-05-20T15:38:17.972Z,23.56
2023-05-20T15:40:45.117Z,23.52
2023-05-20T15:43:12.367Z,23.44
2023-05-20T15:45:39.779Z,23.34
2023-05-20T15:48:07.429Z,23.25
2023-05-20T15:50:37.985Z,23.21
2023-05-20T15:53:06.624Z,23.16
2023-05-20T15:55:34.169Z,23.11
2023-05-20T15:58:01.733Z,23.07
2023-05-20T16:00:29.089Z,23.01
2023-05-20T16:04:15.171Z,22.96
2023-05-20T16:06:42.955Z,22.87
2023-05-20T16:09:10.218Z,22.74
2023-05-20T16:11:37.463Z,22.62
2023-05-20T16:14:04.715Z,22.54
2023-05-20T16:16:33.245Z,22.50
2023-05-20T16:19:02.465Z,22.45
2023-05-20T16:21:29.767Z,22.37
2023-05-20T16:23:57.033Z,22.29
2023-05-20T16:26:24.975Z,22.22
2023-05-20T16:28:52.229Z,22.15
2023-05-20T16:31:20.064Z,22.04
2023-05-20T16:33:47.451Z,21.92
2023-05-20T16:36:14.713Z,21.82
2023-05-20T16:38:42.167Z,21.75
2023-05-20T16:41:09.531Z,21.67
2023-05-20T16:43:36.792Z,21.59
2023-05-20T16:46:04.157Z,21.51
2023-05-20T16:48:31.789Z,21.45
2023-05-20T16:50:58.947Z,21.39
2023-05-20T16:53:26.089Z,21.33
2023-05-20T16:55:54.848Z,21.28
2023-05-20T16:58:22.141Z,21.23
2023-05-20T17:00:49.446Z,21.19
2023-05-20T17:03:18.383Z,21.15
2023-05-20T17:05:45.745Z,21.10
2023-05-20T17:08:12.902Z,21.04
2023-05-20T17:10:40.353Z,20.96
2023-05-20T17:13:07.606Z,20.87
2023-05-20T17:15:37.413Z,20.78
2023-05-20T17:18:04.786Z,20.71
2023-05-20T17:20:32.654Z,20.64
2023-05-20T17:23:00.139Z,20.56
2023-05-20T17:25:27.355Z,20.50
2023-05-20T17:27:54.722Z,20.44
2023-05-20T17:30:22.167Z,20.37
2023-05-20T17:32:51.121Z,20.29
2023-05-20T17:35:20.916Z,20.23
2023-05-20T17:37:48.129Z,20.18
2023-05-20T17:40:15.688Z,20.13
2023-05-20T17:42:43.043Z,20.06
2023-05-20T17:45:11.026Z,19.95
2023-05-20T17:47:38.290Z,19.94
2023-05-20T17:50:06.620Z,19.89
2023-05-20T17:52:33.903Z,19.86
2023-05-20T17:55:01.267Z,19.82
2023-05-20T17:57:28.821Z,19.78
2023-05-20T17:59:56.072Z,19.71
2023-05-20T18:02:24.015Z,19.64
2023-05-20T18:04:51.504Z,19.58
2023-05-20T18:07:18.763Z,19.52
2023-05-20T18:09:46.219Z,19.46
2023-05-20T18:12:13.471Z,19.42
2023-05-20T18:14:40.937Z,19.36
2023-05-20T18:17:08.184Z,19.32
2023-05-20T18:19:35.446Z,19.28
2023-05-20T18:22:02.953Z,19.23
2023-05-20T18:24:30.359Z,19.15
2023-05-20T18:26:57.628Z,19.07
2023-05-20T18:29:27.136Z,19.01
2023-05-20T18:31:54.429Z,18.95
2023-05-20T18:34:21.738Z,18.88
2023-05-20T18:36:49.081Z,18.83
2023-05-20T18:39:20.854Z,18.80
2023-05-20T18:41:48.563Z,18.74
2023-05-20T18:44:16.400Z,18.61
2023-05-20T18:46:43.639Z,18.59
2023-05-20T18:49:11.498Z,18.54
2023-05-20T18:51:39.713Z,18.48
2023-05-20T18:54:06.990Z,18.43
2023-05-20T18:56:34.488Z,18.37
2023-05-20T18:59:02.060Z,18.32
2023-05-20T19:01:29.580Z,18.25
2023-05-20T19:03:56.973Z,18.16
2023-05-20T19:06:24.224Z,18.07
2023-05-20T19:08:51.587Z,17.99
2023-05-20T19:11:18.943Z,17.92
2023-05-20T19:13:46.291Z,17.79
2023-05-20T19:16:13.616Z,17.75
2023-05-20T19:18:41.246Z,17.68
2023-05-20T19:21:08.566Z,17.63
2023-05-20T19:23:35.834Z,17.57
2023-05-20T19:26:03.178Z,17.52
2023-05-20T19:28:30.431Z,17.47
2023-05-20T19:30:57.713Z,17.41
2023-05-20T19:33:24.941Z,17.35
2023-05-20T19:35:52.195Z,17.28
2023-05-20T19:38:19.557Z,17.24
2023-05-20T19:40:48.148Z,17.20
2023-05-20T19:43:15.702Z,17.16
2023-05-20T19:45:43.026Z,17.12
2023-05-20T19:48:10.353Z,17.10
2023-05-20T19:50:38.200Z,17.08
2023-05-20T19:53:07.856Z,17.07
2023-05-20T19:55:36.300Z,17.04
2023-05-20T19:58:03.943Z,16.99
2023-05-20T20:00:31.408Z,16.94
2023-05-20T20:02:59.531Z,16.90
2023-05-20T20:05:27.452Z,16.85
2023-05-20T20:07:54.804Z,16.79
2023-05-20T20:10:22.162Z,16.73
2023-05-20T20:12:50.140Z,16.68
2023-05-20T20:15:17.798Z,16.64
2023-05-20T20:17:45.910Z,16.61
2023-05-20T20:20:14.451Z,16.56
2023-05-20T20:22:42.264Z,16.52
2023-05-20T20:25:09.786Z,16.48
2023-05-20T20:27:37.001Z,16.44
2023-05-20T20:30:04.784Z,16.41
2023-05-20T20:32:32.188Z,16.38
2023-05-20T20:34:59.881Z,16.35
2023-05-20T20:37:29.957Z,16.33
2023-05-20T20:39:57.526Z,16.31
2023-05-20T20:42:24.899Z,16.29
2023-05-20T20:44:52.967Z,16.25
2023-05-20T20:47:20.256Z,16.22
2023-05-20T20:49:47.667Z,16.19
2023-05-20T20:52:14.926Z,16.15
2023-05-20T20:54:43.289Z,16.12
2023-05-20T20:57:11.802Z,16.09
2023-05-20T20:59:40.171Z,16.06
2023-05-20T21:02:07.437Z,16.03
2023-05-20T21:04:34.806Z,16.00
2023-05-20T21:07:02.327Z,15.95
2023-05-20T21:09:29.703Z,15.92
2023-05-20T21:11:57.511Z,15.89
2023-05-20T21:14:25.596Z,15.86
2023-05-20T21:16:52.829Z,15.80
2023-05-20T21:19:20.206Z,15.76
2023-05-20T21:21:47.545Z,15.72
2023-05-20T21:24:14.889Z,15.68
2023-05-20T21:26:42.148Z,15.64
2023-05-20T21:29:12.199Z,15.60
2023-05-20T21:31:39.355Z,15.57
2023-05-20T21:34:06.663Z,15.48
2023-05-20T21:36:33.944Z,15.40
2023-05-20T21:39:01.173Z,15.38
2023-05-20T21:41:28.424Z,15.35
2023-05-20T21:43:55.888Z,15.32
2023-05-20T21:46:23.164Z,15.29
2023-05-20T21:48:50.396Z,15.26
2023-05-20T21:51:17.656Z,15.22
2023-05-20T21:53:44.912Z,15.18
2023-05-20T21:56:12.219Z,15.13
2023-05-20T21:58:41.474Z,15.10
2023-05-20T22:01:10.377Z,15.08
2023-05-20T22:03:38.573Z,15.04
2023-05-20T22:06:06.416Z,15.00
2023-05-20T22:08:34.185Z,14.96
2023-05-20T22:11:05.745Z,14.93
2023-05-20T22:13:33.959Z,14.91
2023-05-20T22:16:02.183Z,14.85
2023-05-20T22:18:29.753Z,14.77
2023-05-20T22:21:00.592Z,14.72
2023-05-20T22:23:28.363Z,14.67
2023-05-20T22:25:55.617Z,14.62
2023-05-20T22:28:23.968Z,14.56
2023-05-20T22:30:51.867Z,14.53
2023-05-20T22:33:19.229Z,14.48
2023-05-20T22:35:46.476Z,14.43
2023-05-20T22:38:13.734Z,14.39
2023-05-20T22:40:40.998Z,14.34
2023-05-20T22:43:08.354Z,14.30
2023-05-20T22:45:36.121Z,14.27
2023-05-20T22:48:04.832Z,14.22
2023-05-20T22:50:35.730Z,14.16
2023-05-20T22:53:03.508Z,14.10
2023-05-20T22:55:30.771Z,14.06
2023-05-20T22:57:58.224Z,14.03
2023-05-20T23:00:25.484Z,14.00
2023-05-20T23:02:52.828Z,13.96
2023-05-20T23:05:20.306Z,13.92
2023-05-20T23:07:47.760Z,13.88
2023-05-20T23:10:15.041Z,13.84
2023-05-20T23:12:42.270Z,13.81
2023-05-20T23:15:10.683Z,13.77
2023-05-20T23:17:39.803Z,13.72
2023-05-20T23:20:11.317Z,13.67
2023-05-20T23:22:38.867Z,13.64
2023-05-20T23:25:06.675Z,13.61
2023-05-20T23:27:34.197Z,13.59
2023-05-20T23:30:01.458Z,13.54
2023-05-20T23:32:28.788Z,13.51
2023-05-20T23:34:56.184Z,13.47
2023-05-20T23:37:23.524Z,13.44
2023-05-20T23:39:51.229Z,13.42
2023-05-20T23:42:18.440Z,13.39
2023-05-20T23:44:45.695Z,13.35
2023-05-20T23:47:13.971Z,13.33
2023-05-20T23:49:41.816Z,13.29
2023-05-20T23:52:09.042Z,13.26
2023-05-20T23:54:36.764Z,13.23
2023-05-20T23:57:04.484Z,13.20
2023-05-20T23:59:31.991Z,13.16
